Time;durP1;ratioP1;P1;durP2;ratioP2;P2;SDS_P1;SDS_P2;PMS_P1;PMS_P2;Temp;Humidity;BMP_temperature;BMP_pressure;BME280_temperature;BME280_humidity;BME280_pressure;Samples;Min_cycle;Max_cycle;Signal;HPM_P1;HPM_P2
2023/11/02 00:02:06;;;;;;;;;;;;;;;25.76;41.21;92724.19;5038353;28;7274;-57
2023/11/02 00:04:44;;;;;;;;;;;;;;;25.77;41.06;92731.19;5044721;28;7206;-62
2023/11/02 00:07:12;;;;;;;;;;;;;;;25.76;41.36;92716.69;5036569;28;9041;-62
2023/11/02 00:09:43;;;;;;;;;;;;;;;25.78;41.76;92707.84;5033183;28;8765;-62
2023/11/02 00:12:23;;;;;;;;;;;;;;;25.76;41.36;92700.16;5043077;28;7262;-62
2023/11/02 00:15:19;;;;;;;;;;;;;;;25.76;41.57;92685.66;5052284;28;9370;-62
2023/11/02 00:18:03;;;;;;;;;;;;;;;25.74;40.96;92685.47;5000138;28;7652;-62
2023/11/02 00:20:42;;;;;;;;;;;;;;;25.74;41.13;92680.69;4975448;28;8578;-62
2023/11/02 00:23:47;;;;;;;;;;;;;;;25.72;41.60;92672.25;4988144;28;7252;-62
2023/11/02 00:26:22;;;;;;;;;;;;;;;25.71;41.47;92661.81;5009543;28;7095;-62
2023/11/02 00:28:48;;;;;;;;;;;;;;;25.70;41.77;92647.28;4987101;28;7176;-62
2023/11/02 00:31:14;;;;;;;;;;;;;;;25.67;41.39;92642.88;4995385;28;7291;-62
2023/11/02 00:33:43;;;;;;;;;;;;;;;25.72;41.84;92652.25;4986369;28;7253;-62
2023/11/02 00:36:18;;;;;;;;;;;;;;;25.72;40.77;92641.22;5010702;28;6967;-62
2023/11/02 00:39:04;;;;;;;;;;;;;;;25.67;41.02;92640.13;4997870;28;9040;-62
2023/11/02 00:41:44;;;;;;;;;;;;;;;25.68;41.47;92638.13;4993742;28;7465;-62
2023/11/02 00:44:12;;;;;;;;;;;;;;;25.69;41.44;92643.06;4985122;28;9173;-62
2023/11/02 00:46:39;;;;;;;;;;;;;;;25.68;41.67;92629.84;4968285;28;9501;-61
2023/11/02 00:49:20;;;;;;;;;;;;;;;25.68;40.85;92624.34;4985936;28;7255;-61
2023/11/02 00:52:00;;;;;;;;;;;;;;;25.66;41.55;92622.16;4998803;28;7347;-62
2023/11/02 00:55:22;;;;;;;;;;;;;;;25.66;41.19;92622.16;5037251;28;7042;-61
2023/11/02 00:58:07;;;;;;;;;;;;;;;25.65;41.50;92622.69;5042690;28;8762;-62
2023/11/02 01:01:10;;;;;;;;;;;;;;;25.66;41.12;92596.63;5030419;28;6990;-61
2023/11/02 01:03:54;;;;;;;;;;;;;;;25.65;41.29;92592.41;5030756;28;7497;-61
2023/11/02 01:06:31;;;;;;;;;;;;;;;25.63;41.60;92584.72;5039894;28;9087;-61
2023/11/02 01:09:32;;;;;;;;;;;;;;;25.63;41.73;92579.19;5039661;28;7271;-61
2023/11/02 01:12:23;;;;;;;;;;;;;;;25.62;41.48;92572.22;4954823;28;7280;-61
2023/11/02 01:14:58;;;;;;;;;;;;;;;25.59;41.11;92556.09;4974759;28;6971;-54
2023/11/02 01:17:50;;;;;;;;;;;;;;;25.63;40.86;92553.69;4963467;28;8770;-54
2023/11/02 01:20:52;;;;;;;;;;;;;;;25.61;41.69;92554.25;4962167;28;7884;-55
2023/11/02 01:23:27;;;;;;;;;;;;;;;25.61;41.63;92548.00;4950320;28;7013;-55
2023/11/02 01:25:57;;;;;;;;;;;;;;;25.58;41.56;92535.38;4955580;28;9120;-55
2023/11/02 01:28:51;;;;;;;;;;;;;;;25.58;41.63;92546.38;4954641;28;7327;-55
2023/11/02 01:31:24;;;;;;;;;;;;;;;25.60;40.87;92530.03;4954485;28;9475;-55
2023/11/02 01:34:01;;;;;;;;;;;;;;;25.57;40.75;92522.88;4954888;28;7489;-54
2023/11/02 01:36:42;;;;;;;;;;;;;;;25.56;41.11;92502.13;4954682;28;7190;-55
2023/11/02 01:39:14;;;;;;;;;;;;;;;25.56;41.07;92504.88;4954702;28;7316;-55
2023/11/02 01:42:08;;;;;;;;;;;;;;;25.56;40.78;92486.34;4954334;28;7097;-52
2023/11/02 01:44:48;;;;;;;;;;;;;;;25.52;41.36;92469.47;4954469;28;7496;-54
2023/11/02 01:47:35;;;;;;;;;;;;;;;25.55;41.45;92475.91;4953013;28;7000;-54
2023/11/02 01:50:14;;;;;;;;;;;;;;;25.55;41.64;92467.63;4964654;28;7003;-54
2023/11/02 01:52:59;;;;;;;;;;;;;;;25.53;41.70;92468.19;4963752;28;7249;-55
2023/11/02 01:56:02;;;;;;;;;;;;;;;25.52;41.62;92450.22;4989623;28;7451;-54
2023/11/02 01:59:14;;;;;;;;;;;;;;;25.51;41.78;92437.00;4990251;28;7297;-54
2023/11/02 02:02:14;;;;;;;;;;;;;;;25.51;41.80;92421.25;5041394;28;7285;-55
2023/11/02 02:04:51;;;;;;;;;;;;;;;25.50;41.63;92419.75;5036860;28;8217;-54
2023/11/02 02:07:43;;;;;;;;;;;;;;;25.50;41.48;92406.00;5052619;28;7009;-54
2023/11/02 02:10:22;;;;;;;;;;;;;;;25.49;41.80;92404.53;5035177;28;7266;-55
2023/11/02 02:13:16;;;;;;;;;;;;;;;25.48;41.33;92383.81;5027221;28;7412;-54
2023/11/02 02:16:34;;;;;;;;;;;;;;;25.48;40.98;92385.81;5050541;28;7261;-55
2023/11/02 02:22:31;;;;;;;;;;;;;;;25.46;41.65;92375.38;4980824;28;7299;-54
2023/11/02 02:28:42;;;;;;;;;;;;;;;25.45;40.95;92354.63;4960734;28;7243;-56
2023/11/02 02:35:09;;;;;;;;;;;;;;;25.42;40.98;92320.00;4969556;28;7439;-56
2023/11/02 02:38:31;;;;;;;;;;;;;;;25.42;41.19;92309.69;4961860;28;7165;-56
2023/11/02 02:41:55;;;;;;;;;;;;;;;25.41;41.12;92296.47;4931987;28;7367;-56
2023/11/02 02:44:50;;;;;;;;;;;;;;;25.40;41.09;92284.00;4862430;29;9633;-56
2023/11/02 02:47:21;;;;;;;;;;;;;;;25.38;41.97;92267.34;4872937;29;7093;-56
2023/11/02 02:49:51;;;;;;;;;;;;;;;25.38;41.40;92270.78;4848221;29;8796;-56
2023/11/02 02:52:23;;;;;;;;;;;;;;;25.40;41.45;92256.50;4870608;29;7019;-56
2023/11/02 02:54:53;;;;;;;;;;;;;;;25.39;40.97;92261.25;4894856;29;9082;-56
2023/11/02 02:57:28;;;;;;;;;;;;;;;25.38;41.42;92259.09;4895695;29;9096;-56
2023/11/02 02:59:59;;;;;;;;;;;;;;;25.35;41.00;92247.16;4912593;29;7606;-56
2023/11/02 03:02:32;;;;;;;;;;;;;;;25.37;41.04;92243.84;4911559;29;7540;-56
2023/11/02 03:04:59;;;;;;;;;;;;;;;25.36;41.88;92236.88;4899134;29;7321;-56
2023/11/02 03:07:36;;;;;;;;;;;;;;;25.36;41.24;92245.13;4897575;29;7227;-57
2023/11/02 03:10:42;;;;;;;;;;;;;;;25.37;41.67;92241.84;4915077;29;7598;-56
2023/11/02 03:13:13;;;;;;;;;;;;;;;25.36;41.54;92234.13;4912246;29;6979;-56
2023/11/02 03:15:51;;;;;;;;;;;;;;;25.35;41.71;92202.41;5001592;28;7269;-56
2023/11/02 03:18:29;;;;;;;;;;;;;;;25.34;40.95;92192.69;5041503;28;7338;-56
2023/11/02 03:20:55;;;;;;;;;;;;;;;25.33;41.05;92191.22;5048288;28;7621;-56
2023/11/02 03:23:38;;;;;;;;;;;;;;;25.33;41.70;92193.97;5040495;28;7032;-56
2023/11/02 03:26:55;;;;;;;;;;;;;;;25.31;41.84;92202.81;5031888;28;9184;-56
2023/11/02 03:29:53;;;;;;;;;;;;;;;25.32;41.04;92209.75;4966157;28;7320;-57
2023/11/02 03:32:53;;;;;;;;;;;;;;;25.32;41.27;92184.25;4955870;28;8932;-56
2023/11/02 03:36:13;;;;;;;;;;;;;;;25.33;41.74;92186.47;4952809;28;7565;-56
2023/11/02 03:39:06;;;;;;;;;;;;;;;25.31;41.18;92158.78;4964838;28;7583;-56
2023/11/02 03:41:35;;;;;;;;;;;;;;;25.29;41.41;92158.59;4955809;28;7261;-56
2023/11/02 03:48:11;;;;;;;;;;;;;;;25.25;41.12;92141.75;4885972;29;8466;-55
2023/11/02 03:51:05;;;;;;;;;;;;;;;25.26;41.72;92164.50;4878935;29;7429;-55
2023/11/02 03:53:38;;;;;;;;;;;;;;;25.26;41.88;92159.00;4865777;29;7198;-55
2023/11/02 03:56:40;;;;;;;;;;;;;;;25.28;40.79;92156.41;4873155;29;7282;-55
2023/11/02 03:59:16;;;;;;;;;;;;;;;25.26;40.97;92134.22;4861097;29;7511;-54
2023/11/02 04:01:59;;;;;;;;;;;;;;;25.22;41.03;92125.66;4872639;29;8838;-54
2023/11/02 04:04:50;;;;;;;;;;;;;;;25.23;40.85;92122.31;4884997;29;7462;-54
2023/11/02 04:07:33;;;;;;;;;;;;;;;25.23;41.50;92127.09;4969307;28;7353;-55
2023/11/02 04:10:11;;;;;;;;;;;;;;;25.22;41.89;92126.38;4973123;28;7242;-54
2023/11/02 04:13:08;;;;;;;;;;;;;;;25.23;41.41;92118.84;4975044;28;7263;-55
2023/11/02 04:15:37;;;;;;;;;;;;;;;25.22;41.42;92098.88;4968409;28;9498;-54
2023/11/02 04:18:32;;;;;;;;;;;;;;;25.22;41.76;92081.63;4962997;28;9044;-54
2023/11/02 04:21:14;;;;;;;;;;;;;;;25.21;41.21;92088.41;4888110;29;6991;-54
2023/11/02 04:23:41;;;;;;;;;;;;;;;25.19;41.60;92074.50;4928394;28;7034;-55
2023/11/02 04:26:17;;;;;;;;;;;;;;;25.20;41.16;92057.44;4984507;28;7611;-54
2023/11/02 04:28:45;;;;;;;;;;;;;;;25.19;41.94;92044.22;4960186;28;7309;-54
2023/11/02 04:31:13;;;;;;;;;;;;;;;25.15;41.84;92049.41;4975562;28;9021;-54
2023/11/02 04:33:44;;;;;;;;;;;;;;;25.17;41.20;92060.56;4967413;28;7309;-54
2023/11/02 04:36:14;;;;;;;;;;;;;;;25.18;41.91;92051.03;4986389;28;7277;-54
2023/11/02 04:39:15;;;;;;;;;;;;;;;25.16;41.70;92045.38;4984711;28;7391;-55
2023/11/02 04:41:42;;;;;;;;;;;;;;;25.17;41.44;92030.31;4933480;28;8060;-55
2023/11/02 04:44:17;;;;;;;;;;;;;;;25.14;41.02;91998.44;4958527;28;9037;-54
2023/11/02 04:47:06;;;;;;;;;;;;;;;25.15;41.15;92013.66;4947024;28;8447;-55
2023/11/02 04:49:50;;;;;;;;;;;;;;;25.17;40.92;91967.03;4946796;28;8762;-55
2023/11/02 04:52:35;;;;;;;;;;;;;;;25.15;41.83;91966.88;4954040;28;7284;-55
2023/11/02 04:55:15;;;;;;;;;;;;;;;25.11;41.30;91948.03;4931562;28;8015;-62
2023/11/02 04:57:42;;;;;;;;;;;;;;;25.10;41.29;91948.63;4948088;28;7088;-62
2023/11/02 05:00:39;;;;;;;;;;;;;;;25.12;41.43;91943.28;4974977;28;6993;-62
2023/11/02 05:03:05;;;;;;;;;;;;;;;25.14;41.86;91937.94;4952279;28;7139;-62
2023/11/02 05:05:47;;;;;;;;;;;;;;;25.12;41.53;91913.72;4947057;28;7251;-62
2023/11/02 05:08:23;;;;;;;;;;;;;;;25.11;41.31;91923.28;4923439;28;8931;-62
2023/11/02 05:11:01;;;;;;;;;;;;;;;25.12;41.76;91924.03;4954991;28;9082;-62
2023/11/02 05:13:29;;;;;;;;;;;;;;;25.10;41.34;91935.56;4946090;28;7440;-62
2023/11/02 05:16:08;;;;;;;;;;;;;;;25.11;41.74;91912.28;4952357;28;7333;-62
2023/11/02 05:18:53;;;;;;;;;;;;;;;25.10;41.21;91904.63;4940385;28;8787;-62
2023/11/02 05:21:39;;;;;;;;;;;;;;;25.08;41.17;91907.19;4961088;28;7326;-62
2023/11/02 05:24:19;;;;;;;;;;;;;;;25.08;41.69;91894.16;4973996;28;7321;-62
2023/11/02 05:27:03;;;;;;;;;;;;;;;25.07;40.95;91876.22;4960938;28;6986;-62
2023/11/02 05:29:39;;;;;;;;;;;;;;;25.06;41.54;91849.25;4974309;28;7460;-61
2023/11/02 05:32:17;;;;;;;;;;;;;;;25.05;41.11;91832.06;4946109;28;7227;-62
2023/11/02 05:35:09;;;;;;;;;;;;;;;25.07;41.37;91834.97;4960666;28;8999;-62
2023/11/02 05:37:44;;;;;;;;;;;;;;;25.05;41.41;91810.06;4962959;28;7000;-61
2023/11/02 05:40:15;;;;;;;;;;;;;;;25.05;41.39;91807.31;5018460;28;7402;-62
2023/11/02 05:42:44;;;;;;;;;;;;;;;25.05;41.42;91825.81;5054757;28;8824;-61
2023/11/02 05:45:43;;;;;;;;;;;;;;;25.04;41.18;91807.84;5032009;28;7280;-62
2023/11/02 05:48:09;;;;;;;;;;;;;;;25.04;41.94;91824.34;4990796;28;7602;-62
2023/11/02 05:50:44;;;;;;;;;;;;;;;25.02;41.88;91807.69;4971340;28;7238;-62
2023/11/02 05:53:34;;;;;;;;;;;;;;;25.03;41.40;91823.66;4992726;28;7654;-62
2023/11/02 05:56:15;;;;;;;;;;;;;;;25.00;41.29;91802.03;4977724;28;9589;-62
2023/11/02 05:58:42;;;;;;;;;;;;;;;25.01;41.10;91792.50;4971169;28;7433;-62
2023/11/02 06:01:14;;;;;;;;;;;;;;;25.01;41.50;91784.25;4987865;28;9529;-62
2023/11/02 06:03:46;;;;;;;;;;;;;;;25.00;41.10;91789.03;4986075;28;8833;-60
2023/11/02 06:06:14;;;;;;;;;;;;;;;24.95;42.15;91778.25;4989716;28;7273;-59
2023/11/02 06:08:40;;;;;;;;;;;;;;;24.94;41.77;91787.81;4985919;28;7403;-59
2023/11/02 06:11:06;;;;;;;;;;;;;;;24.96;42.05;91774.22;4989685;28;7072;-59
2023/11/02 06:13:34;;;;;;;;;;;;;;;24.96;41.65;91757.72;4972788;28;9044;-59
2023/11/02 06:16:00;;;;;;;;;;;;;;;24.97;41.67;91756.44;4970635;28;7227;-59
2023/11/02 06:18:26;;;;;;;;;;;;;;;24.97;41.64;91737.19;4974521;28;7005;-59
2023/11/02 06:20:53;;;;;;;;;;;;;;;24.98;41.57;91720.13;4968892;28;8772;-59
2023/11/02 06:23:35;;;;;;;;;;;;;;;25.05;42.02;91713.06;5007525;28;9423;-59
2023/11/02 06:26:18;;;;;;;;;;;;;;;25.08;41.42;91737.38;5041953;28;7420;-59
2023/11/02 06:28:51;;;;;;;;;;;;;;;25.12;41.05;91754.19;5041468;28;8597;-59
2023/11/02 06:31:24;;;;;;;;;;;;;;;25.15;40.92;91755.81;5022467;28;7254;-59
2023/11/02 06:33:51;;;;;;;;;;;;;;;25.21;40.55;91769.31;5041375;28;7363;-60
2023/11/02 06:36:17;;;;;;;;;;;;;;;25.24;40.49;91777.16;5043165;28;8833;-59
2023/11/02 06:38:44;;;;;;;;;;;;;;;25.27;40.45;91794.56;5025520;28;8772;-59
2023/11/02 06:41:10;;;;;;;;;;;;;;;25.29;40.80;91806.41;5029214;28;7204;-59
2023/11/02 06:43:41;;;;;;;;;;;;;;;25.35;41.15;91844.69;5034885;28;9144;-59
2023/11/02 06:46:08;;;;;;;;;;;;;;;25.40;41.00;91907.00;5038789;28;7457;-60
2023/11/02 06:48:34;;;;;;;;;;;;;;;25.43;41.13;91931.38;5048942;28;7155;-59
2023/11/02 06:51:01;;;;;;;;;;;;;;;25.49;40.66;91941.44;5020970;28;7073;-60
2023/11/02 06:53:33;;;;;;;;;;;;;;;25.50;39.89;91979.38;5049723;28;7374;-59
2023/11/02 06:56:01;;;;;;;;;;;;;;;25.54;40.88;92009.25;5052796;28;9023;-60
2023/11/02 06:58:28;;;;;;;;;;;;;;;25.58;40.08;92010.28;5035133;28;9285;-59
2023/11/02 07:01:00;;;;;;;;;;;;;;;25.61;39.98;92011.91;5035459;28;9158;-59
2023/11/02 07:03:27;;;;;;;;;;;;;;;25.63;40.74;92014.84;5032454;28;7260;-59
2023/11/02 07:05:57;;;;;;;;;;;;;;;25.62;40.20;92029.16;5037029;28;7240;-59
2023/11/02 07:08:23;;;;;;;;;;;;;;;25.67;40.00;92026.16;5036239;28;9190;-59
2023/11/02 07:10:50;;;;;;;;;;;;;;;25.69;40.34;92023.56;5061834;28;8155;-59
2023/11/02 07:13:22;;;;;;;;;;;;;;;25.71;39.95;92009.25;5054595;28;7261;-59
2023/11/02 07:15:58;;;;;;;;;;;;;;;25.72;40.52;92007.94;5029279;28;7221;-55
2023/11/02 07:18:31;;;;;;;;;;;;;;;25.72;40.60;92005.94;5031543;28;9045;-55
2023/11/02 07:20:58;;;;;;;;;;;;;;;25.74;40.33;92000.56;5053663;28;7088;-54
2023/11/02 07:23:27;;;;;;;;;;;;;;;25.72;39.79;92000.41;5032627;28;7458;-54
2023/11/02 07:25:58;;;;;;;;;;;;;;;25.81;40.10;92005.28;5060247;28;7472;-54
2023/11/02 07:28:26;;;;;;;;;;;;;;;25.87;40.08;92014.00;5051734;28;7035;-54
2023/11/02 07:31:12;;;;;;;;;;;;;;;25.92;40.41;92004.78;5036001;28;7184;-54
2023/11/02 07:33:40;;;;;;;;;;;;;;;25.98;39.85;91985.97;5055290;28;9315;-54
2023/11/02 07:36:36;;;;;;;;;;;;;;;26.05;39.76;91992.66;5057351;28;7015;-54
2023/11/02 07:39:11;;;;;;;;;;;;;;;26.10;40.59;91966.91;5042600;28;7219;-54
2023/11/02 07:41:47;;;;;;;;;;;;;;;26.15;40.42;91965.91;5035642;28;7146;-55
2023/11/02 07:44:13;;;;;;;;;;;;;;;26.20;40.43;91964.19;5047886;28;6972;-54
2023/11/02 07:47:05;;;;;;;;;;;;;;;26.25;40.08;91963.22;5028486;28;7129;-55
2023/11/02 07:50:03;;;;;;;;;;;;;;;26.29;40.29;91947.00;4955902;28;9041;-55
2023/11/02 07:53:00;;;;;;;;;;;;;;;26.33;39.47;91945.28;4898926;29;8789;-55
2023/11/02 07:55:55;;;;;;;;;;;;;;;26.35;39.52;91928.16;4892586;29;7043;-55
2023/11/02 07:58:22;;;;;;;;;;;;;;;26.35;39.75;91908.88;4814157;29;7271;-55
2023/11/02 08:01:16;;;;;;;;;;;;;;;26.40;39.56;91900.34;4840243;29;7129;-55
2023/11/02 08:03:50;;;;;;;;;;;;;;;26.40;39.77;91877.56;4840110;29;7678;-55
2023/11/02 08:06:20;;;;;;;;;;;;;;;26.42;39.94;91861.16;4829747;29;9045;-54
2023/11/02 08:08:50;;;;;;;;;;;;;;;26.44;39.52;91875.09;4830915;29;7050;-54
2023/11/02 08:11:53;;;;;;;;;;;;;;;26.46;39.63;91878.00;4840176;29;8863;-55
2023/11/02 08:14:35;;;;;;;;;;;;;;;26.45;39.69;91868.28;4809600;29;9083;-55
2023/11/02 08:17:10;;;;;;;;;;;;;;;26.45;39.37;91860.00;4821380;29;7234;-54
2023/11/02 08:19:47;;;;;;;;;;;;;;;26.48;39.37;91847.84;4802955;29;7151;-54
2023/11/02 08:22:13;;;;;;;;;;;;;;;26.48;39.98;91848.56;4803670;29;7438;-55
2023/11/02 08:25:10;;;;;;;;;;;;;;;26.48;39.29;91853.34;4820192;29;7169;-60
2023/11/02 08:27:46;;;;;;;;;;;;;;;26.48;39.41;91856.09;4802278;29;7248;-60
2023/11/02 08:30:16;;;;;;;;;;;;;;;26.49;39.68;91858.28;4826117;29;7512;-60
2023/11/02 08:32:43;;;;;;;;;;;;;;;26.47;39.82;91840.88;4825070;29;7352;-60
2023/11/02 08:35:12;;;;;;;;;;;;;;;26.46;39.99;91842.19;4849451;29;7287;-60
2023/11/02 08:37:38;;;;;;;;;;;;;;;26.43;39.93;91849.56;4870319;29;7250;-60
2023/11/02 08:40:12;;;;;;;;;;;;;;;26.45;39.75;91854.50;4880006;29;9614;-60
2023/11/02 08:42:43;;;;;;;;;;;;;;;26.42;39.83;91886.72;4878718;29;7627;-60
2023/11/02 08:45:17;;;;;;;;;;;;;;;26.43;40.03;91888.16;4878442;29;9176;-60
2023/11/02 08:47:47;;;;;;;;;;;;;;;26.43;40.20;91931.50;4898448;28;9321;-60
2023/11/02 08:50:15;;;;;;;;;;;;;;;26.42;40.02;91941.84;4972803;28;7174;-60
2023/11/02 08:52:42;;;;;;;;;;;;;;;26.40;40.12;91951.97;4972264;28;7128;-60
2023/11/02 08:55:08;;;;;;;;;;;;;;;26.40;40.19;91957.50;4987880;28;7179;-60
2023/11/02 08:57:53;;;;;;;;;;;;;;;26.38;40.11;91958.03;4936477;28;6967;-60
2023/11/02 09:00:29;;;;;;;;;;;;;;;26.37;40.54;91967.63;4942889;28;7480;-60
2023/11/02 09:02:59;;;;;;;;;;;;;;;26.37;39.87;91961.38;4962804;28;7427;-60
2023/11/02 09:05:32;;;;;;;;;;;;;;;26.33;40.18;91972.09;5056007;28;7332;-60
2023/11/02 09:08:10;;;;;;;;;;;;;;;26.32;40.43;91970.66;5037825;28;6998;-60
2023/11/02 09:10:45;;;;;;;;;;;;;;;26.30;40.10;91978.75;5018660;28;7265;-60
2023/11/02 09:13:16;;;;;;;;;;;;;;;26.30;40.42;91985.00;5036544;28;7216;-60
2023/11/02 09:15:42;;;;;;;;;;;;;;;26.29;40.14;91982.81;5038123;28;6989;-60
2023/11/02 09:18:26;;;;;;;;;;;;;;;26.27;40.57;91990.94;5046125;28;6979;-60
2023/11/02 09:20:53;;;;;;;;;;;;;;;26.26;40.50;91994.97;5054113;28;7018;-60
2023/11/02 09:27:00;;;;;;;;;;;;;;;26.23;40.95;91985.13;5007226;28;7105;-60
2023/11/02 09:29:57;;;;;;;;;;;;;;;26.21;40.88;91982.19;4993929;28;7258;-60
2023/11/02 09:32:30;;;;;;;;;;;;;;;26.16;40.44;91987.38;4919945;29;9376;-60
2023/11/02 09:35:20;;;;;;;;;;;;;;;26.16;40.63;91994.94;4935515;29;7575;-65
2023/11/02 09:37:46;;;;;;;;;;;;;;;26.13;41.12;91998.81;4931106;29;7102;-65
2023/11/02 09:40:12;;;;;;;;;;;;;;;26.14;40.69;92022.34;4935856;29;7309;-65
2023/11/02 09:42:48;;;;;;;;;;;;;;;26.12;40.71;92030.44;4914431;29;7360;-65
2023/11/02 09:45:14;;;;;;;;;;;;;;;26.10;40.82;92039.25;4935618;29;7015;-65
2023/11/02 09:47:45;;;;;;;;;;;;;;;26.10;40.94;92038.53;4935702;29;9037;-65
2023/11/02 09:50:30;;;;;;;;;;;;;;;26.09;40.78;92048.84;4916788;29;7242;-64
2023/11/02 09:53:08;;;;;;;;;;;;;;;26.08;41.02;92061.13;4912521;29;7237;-65
2023/11/02 09:56:01;;;;;;;;;;;;;;;26.08;40.47;92071.41;4935188;29;9267;-65
2023/11/02 09:58:47;;;;;;;;;;;;;;;26.06;40.85;92088.50;4901108;29;7504;-65
2023/11/02 10:01:13;;;;;;;;;;;;;;;26.05;41.21;92094.59;4916164;29;6979;-65
2023/11/02 10:03:53;;;;;;;;;;;;;;;26.01;40.85;92103.25;4947499;28;7036;-65
2023/11/02 10:06:36;;;;;;;;;;;;;;;26.01;41.49;92119.06;4935365;29;7011;-65
2023/11/02 10:09:08;;;;;;;;;;;;;;;26.00;41.29;92147.88;4981602;28;7234;-65
2023/11/02 10:11:40;;;;;;;;;;;;;;;26.00;41.47;92164.41;4998766;28;7145;-65
2023/11/02 10:14:15;;;;;;;;;;;;;;;26.00;41.02;92167.19;5035711;28;6984;-65
2023/11/02 10:16:46;;;;;;;;;;;;;;;25.99;41.06;92165.72;5052963;28;6984;-65
2023/11/02 10:19:31;;;;;;;;;;;;;;;25.97;40.81;92165.53;5035850;28;7042;-65
2023/11/02 10:22:03;;;;;;;;;;;;;;;25.97;41.42;92149.00;5046247;28;7096;-65
2023/11/02 10:24:31;;;;;;;;;;;;;;;25.94;40.74;92141.91;5025579;28;8897;-65
2023/11/02 10:26:59;;;;;;;;;;;;;;;25.90;41.09;92122.31;5031224;28;9063;-65
2023/11/02 10:29:29;;;;;;;;;;;;;;;25.90;41.61;92123.00;5031326;28;9039;-65
2023/11/02 10:31:56;;;;;;;;;;;;;;;25.92;41.26;92131.47;5047844;28;9230;-65
2023/11/02 10:34:28;;;;;;;;;;;;;;;25.87;41.18;92126.91;5030471;28;7254;-65
2023/11/02 10:36:56;;;;;;;;;;;;;;;25.88;41.10;92119.38;5045944;28;6991;-65
2023/11/02 10:39:25;;;;;;;;;;;;;;;25.86;41.58;92108.91;5034140;28;7214;-65
2023/11/02 10:42:04;;;;;;;;;;;;;;;25.88;41.29;92102.88;5046962;28;7057;-65
2023/11/02 10:44:33;;;;;;;;;;;;;;;25.86;41.15;92092.41;5032447;28;9543;-59
2023/11/02 10:47:37;;;;;;;;;;;;;;;25.85;41.65;92090.94;5066921;28;7253;-59
2023/11/02 10:50:21;;;;;;;;;;;;;;;25.85;41.30;92077.19;4995795;28;7237;-59
2023/11/02 10:52:54;;;;;;;;;;;;;;;25.84;41.02;92067.44;4978311;28;9096;-59
2023/11/02 10:55:37;;;;;;;;;;;;;;;25.85;41.80;92079.19;4981727;28;6899;-59
2023/11/02 10:58:07;;;;;;;;;;;;;;;25.85;41.20;92071.69;4984066;28;9379;-59
2023/11/02 11:00:50;;;;;;;;;;;;;;;25.83;41.77;92070.78;4992411;28;9040;-59
2023/11/02 11:03:50;;;;;;;;;;;;;;;25.81;41.28;92063.09;4993812;28;7298;-59
2023/11/02 11:06:20;;;;;;;;;;;;;;;25.79;41.87;92065.69;4926290;28;7330;-59
2023/11/02 11:08:48;;;;;;;;;;;;;;;25.78;41.27;92046.97;4942769;28;6869;-59
2023/11/02 11:11:19;;;;;;;;;;;;;;;25.78;41.29;92052.47;4932516;28;6973;-59
2023/11/02 11:13:49;;;;;;;;;;;;;;;25.73;41.52;92040.41;4931012;28;7448;-58
2023/11/02 11:16:17;;;;;;;;;;;;;;;25.74;41.99;92038.38;4918310;29;6916;-59
2023/11/02 11:18:44;;;;;;;;;;;;;;;25.69;41.23;92020.09;4933913;29;6926;-59
2023/11/02 11:21:15;;;;;;;;;;;;;;;25.73;41.91;92023.88;4933700;28;8837;-59
2023/11/02 11:23:45;;;;;;;;;;;;;;;25.69;41.88;92018.06;4934721;29;7240;-59
2023/11/02 11:26:12;;;;;;;;;;;;;;;25.70;41.35;92005.03;4960420;28;7222;-59
2023/11/02 11:28:49;;;;;;;;;;;;;;;25.69;42.06;91993.28;4991874;28;7259;-59
2023/11/02 11:34:53;;;;;;;;;;;;;;;25.71;41.17;92003.75;4989565;28;7901;-59
2023/11/02 11:40:23;;;;;;;;;;;;;;;25.68;41.20;91989.09;4988536;28;7021;-59
2023/11/02 11:43:15;;;;;;;;;;;;;;;25.68;42.07;91988.34;4973704;28;8797;-59
2023/11/02 11:46:04;;;;;;;;;;;;;;;25.67;41.46;91971.09;4991993;28;7616;-59
2023/11/02 11:48:42;;;;;;;;;;;;;;;25.65;42.19;91962.69;4991588;28;7441;-59
2023/11/02 11:51:42;;;;;;;;;;;;;;;25.65;41.48;91965.44;5006707;28;7273;-59
2023/11/02 11:54:28;;;;;;;;;;;;;;;25.63;41.82;91948.03;4982498;28;7269;-61
2023/11/02 11:57:41;;;;;;;;;;;;;;;25.64;42.25;91932.97;4975792;28;9214;-61
2023/11/02 12:00:10;;;;;;;;;;;;;;;25.63;42.25;91926.00;4953119;29;6988;-61
2023/11/02 12:02:49;;;;;;;;;;;;;;;25.60;42.00;91911.34;4950763;28;7312;-61
2023/11/02 12:05:45;;;;;;;;;;;;;;;25.60;41.46;91899.63;4975511;28;7231;-61
2023/11/02 12:08:22;;;;;;;;;;;;;;;25.60;41.64;91894.84;4950728;28;7508;-61
2023/11/02 12:10:52;;;;;;;;;;;;;;;25.58;42.00;91891.94;4975837;28;7096;-61
2023/11/02 12:13:58;;;;;;;;;;;;;;;25.60;42.04;91899.63;4994340;28;7455;-61
2023/11/02 12:16:35;;;;;;;;;;;;;;;25.58;42.07;91891.94;4994756;28;7325;-61
2023/11/02 12:19:03;;;;;;;;;;;;;;;25.59;41.55;91890.66;4995999;28;9051;-61
2023/11/02 12:21:58;;;;;;;;;;;;;;;25.56;41.95;91885.53;5011128;28;7097;-61
2023/11/02 12:24:38;;;;;;;;;;;;;;;25.55;41.71;91887.59;5007800;28;9111;-61
2023/11/02 12:27:30;;;;;;;;;;;;;;;25.54;42.14;91901.91;5014741;28;7161;-61
2023/11/02 12:30:17;;;;;;;;;;;;;;;25.51;41.75;91903.06;4990901;28;7597;-61
2023/11/02 12:32:46;;;;;;;;;;;;;;;25.48;42.29;91893.91;5008780;28;8707;-61
2023/11/02 12:35:17;;;;;;;;;;;;;;;25.50;41.62;91907.09;4997856;28;7321;-61
2023/11/02 12:37:45;;;;;;;;;;;;;;;25.49;42.14;91900.16;5023090;28;6990;-61
2023/11/02 12:40:22;;;;;;;;;;;;;;;25.50;41.95;91888.56;5025090;28;8773;-61
2023/11/02 12:42:48;;;;;;;;;;;;;;;25.47;42.11;91872.47;5030601;28;7591;-61
2023/11/02 12:48:39;;;;;;;;;;;;;;;25.48;41.84;91825.09;5070151;28;9442;-61
2023/11/02 12:51:23;;;;;;;;;;;;;;;25.49;42.08;91807.28;5041349;28;7146;-61
2023/11/02 12:54:26;;;;;;;;;;;;;;;25.48;42.44;91808.59;5034118;28;6950;-61
2023/11/02 12:57:05;;;;;;;;;;;;;;;25.46;42.25;91802.94;5056275;28;7222;-62
2023/11/02 12:59:48;;;;;;;;;;;;;;;25.47;42.16;91809.88;5054793;28;6996;-62
2023/11/02 13:02:32;;;;;;;;;;;;;;;25.45;41.62;91826.25;5036943;28;8488;-61
2023/11/02 13:05:00;;;;;;;;;;;;;;;25.46;42.31;91816.69;5046689;28;8226;-57
2023/11/02 13:07:43;;;;;;;;;;;;;;;25.46;42.13;91811.19;5021072;28;6970;-57
2023/11/02 13:10:16;;;;;;;;;;;;;;;25.46;42.01;91824.22;5058765;28;9090;-57
2023/11/02 13:12:46;;;;;;;;;;;;;;;25.43;42.16;91810.31;5020884;28;7245;-56
2023/11/02 13:15:16;;;;;;;;;;;;;;;25.44;42.37;91811.03;5029475;28;9153;-57
2023/11/02 13:17:46;;;;;;;;;;;;;;;25.44;41.73;91805.53;5052857;28;9050;-56
2023/11/02 13:20:15;;;;;;;;;;;;;;;25.44;41.98;91813.78;5051319;28;7187;-56
2023/11/02 13:22:47;;;;;;;;;;;;;;;25.45;42.15;91801.47;5037112;28;7279;-56
2023/11/02 13:25:17;;;;;;;;;;;;;;;25.47;42.08;91793.38;5051772;28;6987;-56
2023/11/02 13:27:47;;;;;;;;;;;;;;;25.44;42.22;91780.78;5055487;28;9060;-56
2023/11/02 13:30:18;;;;;;;;;;;;;;;25.47;42.54;91773.41;5036085;28;9276;-57
2023/11/02 13:32:44;;;;;;;;;;;;;;;25.42;42.38;91766.84;5042414;28;7054;-56
2023/11/02 13:35:16;;;;;;;;;;;;;;;25.43;42.08;91765.53;5075093;28;7487;-57
2023/11/02 13:37:53;;;;;;;;;;;;;;;25.41;42.50;91766.09;5037335;28;7248;-57
2023/11/02 13:40:26;;;;;;;;;;;;;;;25.43;42.26;91762.78;5034543;28;7479;-56
2023/11/02 13:42:57;;;;;;;;;;;;;;;25.41;42.41;91759.84;5051225;28;8695;-57
2023/11/02 13:45:53;;;;;;;;;;;;;;;25.41;42.59;91757.09;5031853;28;7517;-56
2023/11/02 13:48:48;;;;;;;;;;;;;;;25.40;41.62;91761.19;4993857;28;7426;-56
2023/11/02 13:51:28;;;;;;;;;;;;;;;25.38;42.64;91763.78;4982931;28;9128;-56
2023/11/02 13:54:07;;;;;;;;;;;;;;;25.38;42.10;91764.47;4959654;28;8139;-57
2023/11/02 13:57:12;;;;;;;;;;;;;;;25.37;42.69;91771.28;4947076;28;8784;-56
2023/11/02 13:59:39;;;;;;;;;;;;;;;25.37;42.25;91776.06;4941909;28;7494;-57
2023/11/02 14:02:15;;;;;;;;;;;;;;;25.37;42.74;91779.53;4957679;28;7255;-57
2023/11/02 14:04:43;;;;;;;;;;;;;;;25.38;42.68;91769.97;4931260;28;7221;-57
2023/11/02 14:07:13;;;;;;;;;;;;;;;25.37;42.34;91767.81;4954172;28;9019;-56
2023/11/02 14:09:47;;;;;;;;;;;;;;;25.35;41.96;91771.13;4954352;28;7260;-56
2023/11/02 14:12:26;;;;;;;;;;;;;;;25.36;41.71;91767.06;4953938;28;7153;-57
2023/11/02 14:14:52;;;;;;;;;;;;;;;25.35;42.47;91764.91;4951882;28;8717;-60
2023/11/02 14:17:22;;;;;;;;;;;;;;;25.34;42.22;91760.69;4944837;28;7269;-60
2023/11/02 14:19:50;;;;;;;;;;;;;;;25.31;42.18;91753.59;4956660;28;7267;-60
2023/11/02 14:22:18;;;;;;;;;;;;;;;25.32;41.72;91766.78;4938838;28;7192;-60
2023/11/02 14:24:44;;;;;;;;;;;;;;;25.28;42.72;91760.22;4926825;28;8718;-60